createdAt,value
2023-08-11T00:01:26.358Z,10.30
2023-08-11T00:03:53.658Z,10.20
2023-08-11T00:06:20.825Z,10.20
2023-08-11T00:08:47.868Z,10.10
2023-08-11T00:11:14.883Z,10.10
2023-08-11T00:13:42.795Z,10.10
2023-08-11T00:16:11.594Z,10.00
2023-08-11T00:18:39.294Z,9.80
2023-08-11T00:21:07.072Z,9.70
2023-08-11T00:23:34.243Z,9.60
2023-08-11T00:26:01.518Z,9.60
2023-08-11T00:28:29.212Z,9.60
2023-08-11T00:30:56.684Z,9.60
2023-08-11T00:33:24.168Z,9.70
2023-08-11T00:35:51.479Z,9.70
2023-08-11T00:38:18.607Z,9.80
2023-08-11T00:40:45.805Z,9.90
2023-08-11T00:43:14.310Z,9.90
2023-08-11T00:45:48.888Z,10.00
2023-08-11T00:48:16.363Z,10.00
2023-08-11T00:50:44.790Z,9.90
2023-08-11T00:53:12.531Z,9.90
2023-08-11T00:55:40.501Z,9.80
2023-08-11T00:58:07.826Z,9.70
2023-08-11T01:00:37.596Z,9.70
2023-08-11T01:03:05.529Z,9.70
2023-08-11T01:05:40.393Z,9.70
2023-08-11T01:08:21.263Z,9.70
2023-08-11T01:11:03.309Z,9.60
2023-08-11T01:13:35.600Z,9.60
2023-08-11T01:16:05.812Z,9.60
2023-08-11T01:18:34.788Z,9.60
2023-08-11T01:21:07.321Z,9.60
2023-08-11T01:23:35.628Z,9.60
2023-08-11T01:26:03.759Z,9.60
2023-08-11T01:28:31.180Z,9.60
2023-08-11T01:30:58.315Z,9.50
2023-08-11T01:33:25.436Z,9.50
2023-08-11T01:35:52.828Z,9.60
2023-08-11T01:38:19.969Z,9.60
2023-08-11T01:40:47.089Z,9.60
2023-08-11T01:43:16.085Z,9.60
2023-08-11T01:45:44.677Z,9.60
2023-08-11T01:48:12.940Z,9.60
2023-08-11T01:50:40.270Z,9.50
2023-08-11T01:53:10.118Z,9.50
2023-08-11T01:55:37.530Z,9.40
2023-08-11T01:58:05.152Z,9.30
2023-08-11T02:00:32.469Z,9.20
2023-08-11T02:03:00.005Z,9.10
2023-08-11T02:05:28.162Z,9.10
2023-08-11T02:07:57.095Z,9.20
2023-08-11T02:10:24.772Z,9.10
2023-08-11T02:12:52.260Z,9.10
2023-08-11T02:15:20.252Z,9.00
2023-08-11T02:17:48.853Z,9.10
2023-08-11T02:20:24.125Z,9.10
2023-08-11T02:22:53.167Z,9.20
2023-08-11T02:25:20.854Z,9.20
2023-08-11T02:27:48.556Z,9.20
2023-08-11T02:30:16.344Z,9.10
2023-08-11T02:32:47.112Z,9.20
2023-08-11T02:35:18.788Z,9.20
2023-08-11T02:37:46.641Z,9.20
2023-08-11T02:40:14.061Z,9.10
2023-08-11T02:43:03.508Z,9.00
2023-08-11T02:45:31.822Z,9.00
2023-08-11T02:47:59.012Z,9.00
2023-08-11T02:50:28.831Z,8.90
2023-08-11T02:52:56.118Z,8.90
2023-08-11T02:55:23.502Z,8.90
2023-08-11T02:57:50.706Z,9.00
2023-08-11T03:00:19.182Z,8.90
2023-08-11T03:02:49.702Z,8.90
2023-08-11T03:05:18.728Z,8.90
2023-08-11T03:07:50.206Z,9.00
2023-08-11T03:10:17.792Z,8.90
2023-08-11T03:12:45.376Z,8.90
2023-08-11T03:15:13.040Z,8.90
2023-08-11T03:17:40.280Z,9.00
2023-08-11T03:20:14.314Z,9.00
2023-08-11T03:22:46.125Z,9.00
2023-08-11T03:25:16.746Z,9.10
2023-08-11T03:27:44.824Z,9.10
2023-08-11T03:30:19.948Z,9.10
2023-08-11T03:32:51.118Z,9.10
2023-08-11T03:35:20.246Z,9.10
2023-08-11T03:37:50.118Z,9.10
2023-08-11T03:40:18.405Z,9.10
2023-08-11T03:42:55.671Z,9.00
2023-08-11T03:45:23.333Z,9.00
2023-08-11T03:47:50.608Z,9.00
2023-08-11T03:50:22.253Z,8.90
2023-08-11T03:52:49.883Z,8.90
2023-08-11T03:55:17.176Z,8.90
2023-08-11T03:57:47.117Z,8.90
2023-08-11T04:00:17.953Z,8.90
2023-08-11T04:02:51.742Z,8.80
2023-08-11T04:05:19.903Z,8.90
2023-08-11T04:07:47.032Z,8.90
2023-08-11T04:10:16.571Z,9.00
2023-08-11T04:12:44.218Z,9.20
2023-08-11T04:15:11.588Z,9.30
2023-08-11T04:17:38.653Z,9.30
2023-08-11T04:20:14.378Z,9.50
2023-08-11T04:22:42.267Z,10.00
2023-08-11T04:25:12.055Z,11.00
2023-08-11T04:27:45.288Z,11.90
2023-08-11T04:30:13.811Z,12.90
2023-08-11T04:32:44.858Z,13.70
2023-08-11T04:35:12.641Z,14.30
2023-08-11T04:37:43.163Z,14.50
2023-08-11T04:40:15.271Z,14.60
2023-08-11T04:42:44.948Z,15.30
2023-08-11T04:45:17.579Z,16.40
2023-08-11T04:47:46.440Z,17.20
2023-08-11T04:50:17.826Z,18.10
2023-08-11T04:52:47.231Z,19.20
2023-08-11T04:55:14.698Z,20.00
2023-08-11T04:57:41.801Z,20.90
2023-08-11T05:00:16.076Z,21.90
2023-08-11T05:02:43.488Z,21.90
2023-08-11T05:05:11.414Z,22.70
2023-08-11T05:07:39.108Z,23.80
2023-08-11T05:10:06.867Z,24.20
2023-08-11T05:12:34.943Z,24.10
2023-08-11T05:15:02.295Z,25.20
2023-08-11T05:17:30.154Z,25.50
2023-08-11T05:19:57.906Z,25.70
2023-08-11T05:22:25.471Z,26.40
2023-08-11T05:24:52.487Z,27.20
2023-08-11T05:27:19.550Z,28.20
2023-08-11T05:29:48.723Z,28.60
2023-08-11T05:32:16.089Z,29.10
2023-08-11T05:34:43.692Z,29.70
2023-08-11T05:37:13.923Z,30.30
2023-08-11T05:39:41.095Z,30.40
2023-08-11T05:42:09.256Z,31.10
2023-08-11T05:44:37.849Z,30.90
2023-08-11T05:47:07.534Z,29.60
2023-08-11T05:49:34.887Z,29.00
2023-08-11T05:52:02.057Z,28.20
2023-08-11T05:54:29.037Z,29.00
2023-08-11T05:56:56.135Z,30.40
2023-08-11T05:59:23.512Z,31.60
2023-08-11T06:01:51.342Z,32.60
2023-08-11T06:04:18.633Z,33.10
2023-08-11T06:06:45.855Z,33.10
2023-08-11T06:09:13.002Z,33.50
2023-08-11T06:11:40.538Z,34.00
2023-08-11T06:14:07.900Z,34.50
2023-08-11T06:16:35.152Z,34.70
2023-08-11T06:19:02.296Z,34.60
2023-08-11T06:21:29.335Z,34.70
2023-08-11T06:23:56.373Z,34.50
2023-08-11T06:26:23.859Z,35.00
2023-08-11T06:29:11.298Z,34.90
2023-08-11T06:31:38.458Z,34.70
2023-08-11T06:34:05.489Z,35.00
2023-08-11T06:36:32.545Z,35.10
2023-08-11T06:38:59.608Z,34.50
2023-08-11T06:41:26.700Z,34.20
2023-08-11T06:43:55.275Z,33.30
2023-08-11T06:46:22.516Z,32.70
2023-08-11T06:48:49.679Z,32.80
2023-08-11T06:51:16.815Z,33.10
2023-08-11T06:53:44.021Z,32.70
2023-08-11T06:56:11.730Z,32.20
2023-08-11T06:58:39.010Z,32.50
2023-08-11T07:01:06.121Z,32.90
2023-08-11T07:03:34.822Z,32.80
2023-08-11T07:06:04.637Z,33.40
2023-08-11T07:08:31.997Z,32.80
2023-08-11T07:10:59.076Z,33.20
2023-08-11T07:13:26.205Z,32.40
2023-08-11T07:15:56.498Z,31.70
2023-08-11T07:18:24.330Z,30.90
2023-08-11T07:20:51.418Z,30.60
2023-08-11T07:23:18.719Z,29.90
2023-08-11T07:25:48.783Z,29.10
2023-08-11T07:28:15.857Z,28.30
2023-08-11T07:30:43.099Z,27.60
2023-08-11T07:33:10.269Z,26.50
2023-08-11T07:35:37.317Z,25.80
2023-08-11T07:38:14.951Z,25.10
2023-08-11T07:40:42.141Z,24.20
2023-08-11T07:43:09.444Z,23.80
2023-08-11T07:45:36.538Z,23.30
2023-08-11T07:48:03.785Z,23.00
2023-08-11T07:50:31.596Z,22.90
2023-08-11T07:52:59.935Z,22.80
2023-08-11T07:55:27.181Z,22.70
2023-08-11T07:57:54.587Z,22.70
2023-08-11T08:00:26.324Z,22.40
2023-08-11T08:02:57.172Z,22.00
2023-08-11T08:05:24.486Z,22.10
2023-08-11T08:07:54.322Z,21.90
2023-08-11T08:10:21.635Z,22.10
2023-08-11T08:12:48.782Z,22.10
2023-08-11T08:15:18.467Z,22.00
2023-08-11T08:17:46.044Z,21.80
2023-08-11T08:20:14.980Z,22.00
2023-08-11T08:22:42.750Z,21.90
2023-08-11T08:25:10.468Z,21.80
2023-08-11T08:27:40.212Z,21.50
2023-08-11T08:30:11.768Z,21.40
2023-08-11T08:32:40.386Z,21.10
2023-08-11T08:35:08.757Z,21.10
2023-08-11T08:37:36.105Z,21.20
2023-08-11T08:40:04.386Z,21.30
2023-08-11T08:42:32.416Z,21.20
2023-08-11T08:45:00.174Z,21.20
2023-08-11T08:47:28.056Z,21.20
2023-08-11T08:49:57.364Z,21.60
2023-08-11T08:52:24.906Z,21.60
2023-08-11T08:54:52.623Z,21.50
2023-08-11T08:57:21.947Z,21.80
2023-08-11T08:59:49.315Z,22.00
2023-08-11T09:02:17.600Z,21.90
2023-08-11T09:04:46.810Z,22.10
2023-08-11T09:07:16.003Z,22.30
2023-08-11T09:09:44.065Z,22.60
2023-08-11T09:12:11.585Z,22.80
2023-08-11T09:14:42.169Z,22.40
2023-08-11T09:17:09.818Z,22.50
2023-08-11T09:19:38.294Z,22.70
2023-08-11T09:22:14.467Z,22.80
2023-08-11T09:24:42.187Z,23.00
2023-08-11T09:27:09.205Z,22.80
2023-08-11T09:29:37.542Z,22.40
2023-08-11T09:32:05.838Z,22.30
2023-08-11T09:34:35.991Z,22.00
2023-08-11T09:37:03.097Z,21.80
2023-08-11T09:39:30.754Z,21.60
2023-08-11T09:41:58.022Z,21.80
2023-08-11T09:44:25.190Z,21.90
2023-08-11T09:46:53.153Z,21.70
2023-08-11T09:49:20.427Z,21.80
2023-08-11T09:51:49.939Z,22.00
2023-08-11T09:54:18.263Z,22.50
2023-08-11T09:56:45.548Z,22.60
2023-08-11T09:59:22.075Z,22.50
2023-08-11T10:01:55.325Z,21.80
2023-08-11T10:04:34.593Z,22.00
2023-08-11T10:07:04.888Z,21.90
2023-08-11T10:09:34.872Z,22.20
2023-08-11T10:12:03.044Z,22.20
2023-08-11T10:14:30.874Z,22.40
2023-08-11T10:17:00.274Z,22.70
2023-08-11T10:19:28.156Z,22.80
2023-08-11T10:21:56.623Z,23.00
2023-08-11T10:24:25.826Z,23.40
2023-08-11T10:26:53.299Z,23.60
2023-08-11T10:29:22.381Z,23.90
2023-08-11T10:31:58.527Z,23.60
2023-08-11T10:34:26.789Z,23.10
2023-08-11T10:36:58.625Z,22.80
2023-08-11T10:39:28.384Z,23.00
2023-08-11T10:41:58.749Z,23.10
2023-08-11T10:44:30.539Z,23.00
2023-08-11T10:47:04.418Z,23.00
2023-08-11T10:49:36.110Z,23.20
2023-08-11T10:52:04.925Z,23.00
2023-08-11T10:54:36.202Z,23.10
2023-08-11T10:57:04.687Z,23.20
2023-08-11T10:59:34.067Z,23.50
2023-08-11T11:02:01.361Z,23.70
2023-08-11T11:04:31.116Z,23.90
2023-08-11T11:07:00.053Z,24.00
2023-08-11T11:09:31.447Z,24.00
2023-08-11T11:11:58.952Z,23.90
2023-08-11T11:14:28.502Z,23.90
2023-08-11T11:17:00.662Z,24.10
2023-08-11T11:19:28.806Z,24.50
2023-08-11T11:21:56.289Z,24.80
2023-08-11T11:24:23.628Z,25.00
2023-08-11T11:26:51.125Z,25.00
2023-08-11T11:29:25.083Z,24.60
2023-08-11T11:31:52.853Z,24.00
2023-08-11T11:34:20.774Z,23.40
2023-08-11T11:36:48.611Z,23.20
2023-08-11T11:39:16.248Z,23.20
2023-08-11T11:41:43.352Z,23.20
2023-08-11T11:44:10.469Z,23.30
2023-08-11T11:46:37.587Z,23.40
2023-08-11T11:49:15.820Z,23.30
2023-08-11T11:51:47.799Z,23.30
2023-08-11T11:54:14.878Z,23.30
2023-08-11T11:56:54.152Z,23.60
2023-08-11T11:59:30.170Z,23.90
2023-08-11T12:02:05.304Z,23.80
2023-08-11T12:04:33.363Z,23.80
2023-08-11T12:07:01.203Z,24.00
2023-08-11T12:09:30.114Z,24.20
2023-08-11T12:11:57.839Z,24.40
2023-08-11T12:14:28.687Z,24.70
2023-08-11T12:16:58.464Z,24.90
2023-08-11T12:19:25.742Z,25.10
2023-08-11T12:21:52.821Z,25.30
2023-08-11T12:24:20.640Z,25.30
2023-08-11T12:26:47.761Z,24.90
2023-08-11T12:29:14.972Z,24.70
2023-08-11T12:31:42.106Z,24.30
2023-08-11T12:34:09.221Z,23.80
2023-08-11T12:36:36.500Z,23.70
2023-08-11T12:39:04.664Z,23.80
2023-08-11T12:41:31.764Z,24.00
2023-08-11T12:43:58.905Z,23.80
2023-08-11T12:46:26.493Z,23.90
2023-08-11T12:48:53.666Z,24.10
2023-08-11T12:51:20.973Z,24.30
2023-08-11T12:53:48.064Z,24.20
2023-08-11T12:56:15.379Z,24.00
2023-08-11T12:58:44.121Z,24.10
2023-08-11T13:01:11.412Z,24.10
2023-08-11T13:03:38.613Z,24.00
2023-08-11T13:06:06.340Z,24.10
2023-08-11T13:08:33.597Z,24.30
2023-08-11T13:11:00.840Z,24.50
2023-08-11T13:13:27.865Z,24.70
2023-08-11T13:15:54.916Z,24.90
2023-08-11T13:19:14.605Z,25.10
2023-08-11T13:22:30.883Z,25.20
2023-08-11T13:24:57.992Z,25.20
2023-08-11T13:27:25.022Z,25.20
2023-08-11T13:29:52.155Z,25.20
2023-08-11T13:32:19.188Z,25.10
2023-08-11T13:34:46.361Z,25.10
2023-08-11T13:37:16.518Z,25.00
2023-08-11T13:39:44.970Z,25.10
2023-08-11T13:42:14.549Z,25.10
2023-08-11T13:44:44.881Z,24.80
2023-08-11T13:47:14.243Z,24.60
2023-08-11T13:49:41.293Z,24.30
2023-08-11T13:52:08.789Z,24.20
2023-08-11T13:54:36.174Z,24.20
2023-08-11T13:57:03.856Z,24.20
2023-08-11T13:59:31.230Z,24.40
2023-08-11T14:01:58.438Z,24.40
2023-08-11T14:04:25.844Z,24.50
2023-08-11T14:06:59.113Z,24.30
2023-08-11T14:09:30.481Z,24.20
2023-08-11T14:11:57.478Z,24.20
2023-08-11T14:14:24.839Z,24.20
2023-08-11T14:16:51.947Z,24.30
2023-08-11T14:19:19.006Z,24.40
2023-08-11T14:21:46.290Z,24.20
2023-08-11T14:24:13.333Z,24.20
2023-08-11T14:26:40.799Z,24.20
2023-08-11T14:29:08.087Z,24.20
2023-08-11T14:31:35.542Z,24.10
2023-08-11T14:34:04.669Z,24.10
2023-08-11T14:36:31.919Z,24.30
2023-08-11T14:39:00.636Z,24.30
2023-08-11T14:41:28.190Z,24.30
2023-08-11T14:43:55.244Z,24.30
2023-08-11T14:46:22.530Z,24.50
2023-08-11T14:48:50.056Z,24.40
2023-08-11T14:51:17.529Z,24.30
2023-08-11T14:53:44.587Z,24.10
2023-08-11T14:56:12.651Z,23.80
2023-08-11T14:58:39.707Z,23.90
2023-08-11T15:01:07.652Z,23.80
2023-08-11T15:03:34.847Z,23.60
2023-08-11T15:06:06.283Z,23.60
2023-08-11T15:08:34.766Z,23.60
2023-08-11T15:11:01.847Z,23.50
2023-08-11T15:13:29.548Z,23.50
2023-08-11T15:15:57.135Z,23.50
2023-08-11T15:18:25.564Z,23.50
2023-08-11T15:20:52.728Z,23.50
2023-08-11T15:23:20.035Z,23.50
2023-08-11T15:25:47.322Z,23.60
2023-08-11T15:28:14.353Z,23.90
2023-08-11T15:30:41.451Z,23.90
2023-08-11T15:33:18.101Z,23.80
2023-08-11T15:35:45.497Z,23.60
2023-08-11T15:38:13.183Z,23.50
2023-08-11T15:40:40.288Z,23.60
2023-08-11T15:43:07.339Z,23.70
2023-08-11T15:45:34.380Z,23.80
2023-08-11T15:48:01.514Z,24.00
2023-08-11T15:50:28.978Z,24.10
2023-08-11T15:52:56.182Z,24.20
2023-08-11T15:55:35.821Z,24.20
2023-08-11T15:58:04.560Z,24.20
2023-08-11T16:00:33.361Z,24.10
2023-08-11T16:03:03.740Z,24.10
2023-08-11T16:05:31.211Z,24.10
2023-08-11T16:07:58.381Z,24.20
2023-08-11T16:10:27.804Z,24.10
2023-08-11T16:12:54.950Z,24.10
2023-08-11T16:15:22.326Z,24.10
2023-08-11T16:17:50.834Z,24.10
2023-08-11T16:20:18.700Z,24.10
2023-08-11T16:22:45.697Z,24.10
2023-08-11T16:25:12.975Z,24.00
2023-08-11T16:27:41.245Z,24.00
2023-08-11T16:30:11.426Z,24.00
2023-08-11T16:32:38.841Z,24.00
2023-08-11T16:35:06.325Z,23.90
2023-08-11T16:37:33.551Z,23.70
2023-08-11T16:40:00.865Z,23.50
2023-08-11T16:42:28.896Z,23.30
2023-08-11T16:44:56.194Z,23.20
2023-08-11T16:47:23.270Z,23.10
2023-08-11T16:49:51.704Z,23.10
2023-08-11T16:52:19.053Z,23.00
2023-08-11T16:54:46.428Z,23.00
2023-08-11T16:57:14.622Z,22.80
2023-08-11T16:59:41.670Z,22.70
2023-08-11T17:02:09.005Z,22.40
2023-08-11T17:04:36.389Z,22.30
2023-08-11T17:07:04.279Z,22.20
2023-08-11T17:09:31.402Z,22.10
2023-08-11T17:11:58.736Z,22.20
2023-08-11T17:14:25.803Z,22.20
2023-08-11T17:16:52.920Z,22.10
2023-08-11T17:19:23.836Z,21.90
2023-08-11T17:21:51.094Z,21.80
2023-08-11T17:24:18.202Z,21.60
2023-08-11T17:26:45.337Z,21.40
2023-08-11T17:29:12.397Z,21.20
2023-08-11T17:31:39.515Z,21.00
2023-08-11T17:34:06.722Z,20.90
2023-08-11T17:36:33.841Z,20.80
2023-08-11T17:39:00.899Z,20.60
2023-08-11T17:41:28.139Z,20.50
2023-08-11T17:43:55.986Z,20.40
2023-08-11T17:46:23.273Z,20.30
2023-08-11T17:48:53.827Z,20.20
2023-08-11T17:51:22.547Z,20.00
2023-08-11T17:54:03.599Z,19.90
2023-08-11T17:56:37.090Z,19.80
2023-08-11T17:59:04.524Z,19.70
2023-08-11T18:01:32.208Z,19.50
2023-08-11T18:04:06.271Z,19.40
2023-08-11T18:06:36.151Z,19.40
2023-08-11T18:09:04.980Z,19.20
2023-08-11T18:11:33.628Z,19.10
2023-08-11T18:14:01.221Z,18.90
2023-08-11T18:16:29.044Z,18.80
2023-08-11T18:18:56.234Z,18.80
2023-08-11T18:21:25.850Z,18.80
2023-08-11T18:23:57.172Z,18.70
2023-08-11T18:26:24.438Z,18.70
2023-08-11T18:28:51.533Z,18.60
2023-08-11T18:31:18.639Z,18.60
2023-08-11T18:33:46.126Z,18.40
2023-08-11T18:36:13.234Z,18.30
2023-08-11T18:38:40.564Z,18.10
2023-08-11T18:41:07.577Z,18.10
2023-08-11T18:43:34.679Z,18.10
2023-08-11T18:46:05.054Z,17.90
2023-08-11T18:48:32.972Z,17.90
2023-08-11T18:51:00.275Z,17.80
2023-08-11T18:53:28.685Z,17.80
2023-08-11T18:55:55.854Z,17.80
2023-08-11T18:58:26.541Z,17.70
2023-08-11T19:00:53.682Z,17.70
2023-08-11T19:03:21.092Z,17.60
2023-08-11T19:05:48.239Z,17.60
2023-08-11T19:08:15.416Z,17.50
2023-08-11T19:10:42.629Z,17.50
2023-08-11T19:13:09.651Z,17.40
2023-08-11T19:15:36.813Z,17.30
2023-08-11T19:18:05.892Z,17.20
2023-08-11T19:20:33.141Z,17.20
2023-08-11T19:23:00.329Z,17.10
2023-08-11T19:25:27.672Z,17.00
2023-08-11T19:27:54.789Z,16.90
2023-08-11T19:30:22.362Z,16.80
2023-08-11T19:32:50.836Z,16.80
2023-08-11T19:35:18.127Z,16.70
2023-08-11T19:37:45.424Z,16.70
2023-08-11T19:40:12.978Z,16.70
2023-08-11T19:42:40.043Z,16.60
2023-08-11T19:45:07.751Z,16.50
2023-08-11T19:47:34.822Z,16.40
2023-08-11T19:50:01.979Z,16.40
2023-08-11T19:52:29.567Z,16.40
2023-08-11T19:54:56.593Z,16.40
2023-08-11T19:57:23.666Z,16.30
2023-08-11T19:59:50.945Z,16.20
2023-08-11T20:02:18.103Z,16.20
2023-08-11T20:04:45.266Z,16.20
2023-08-11T20:07:12.622Z,16.20
2023-08-11T20:09:39.943Z,16.10
2023-08-11T20:12:10.222Z,16.10
2023-08-11T20:14:37.320Z,16.10
2023-08-11T20:17:04.760Z,16.10
2023-08-11T20:19:31.864Z,16.10
2023-08-11T20:22:00.305Z,16.10
2023-08-11T20:24:27.392Z,16.00
2023-08-11T20:26:57.670Z,16.00
2023-08-11T20:29:24.999Z,15.90
2023-08-11T20:31:56.157Z,15.80
2023-08-11T20:34:24.472Z,15.70
2023-08-11T20:36:52.572Z,15.60
2023-08-11T20:39:23.136Z,15.50
2023-08-11T20:41:51.276Z,15.40
2023-08-11T20:44:18.515Z,15.30
2023-08-11T20:46:45.833Z,15.30
2023-08-11T20:49:12.915Z,15.20
2023-08-11T20:51:53.580Z,15.20
2023-08-11T20:54:20.739Z,15.10
2023-08-11T20:56:47.841Z,15.10
2023-08-11T20:59:14.945Z,15.00
2023-08-11T21:01:42.091Z,15.00
2023-08-11T21:04:12.212Z,15.00
2023-08-11T21:06:39.605Z,15.00
2023-08-11T21:09:06.667Z,14.90
2023-08-11T21:11:34.040Z,14.90
2023-08-11T21:14:08.092Z,14.90
2023-08-11T21:16:35.250Z,14.90
2023-08-11T21:19:02.550Z,14.80
2023-08-11T21:21:29.862Z,14.80
2023-08-11T21:23:57.040Z,14.80
2023-08-11T21:26:24.175Z,14.80
2023-08-11T21:28:51.774Z,14.70
2023-08-11T21:31:19.156Z,14.70
2023-08-11T21:33:59.018Z,14.60
2023-08-11T21:36:28.586Z,14.60
2023-08-11T21:38:57.493Z,14.60
2023-08-11T21:41:27.202Z,14.60
2023-08-11T21:43:54.618Z,14.50
2023-08-11T21:46:21.801Z,14.50
2023-08-11T21:49:10.466Z,14.40
2023-08-11T21:51:47.084Z,14.40
2023-08-11T21:54:14.476Z,14.40
2023-08-11T21:56:41.663Z,14.30
2023-08-11T21:59:08.923Z,14.30
2023-08-11T22:01:35.927Z,14.20
2023-08-11T22:04:03.073Z,14.10
2023-08-11T22:06:30.199Z,14.00
2023-08-11T22:08:57.264Z,13.90
2023-08-11T22:11:36.042Z,13.80
2023-08-11T22:14:05.382Z,13.70
2023-08-11T22:16:33.646Z,13.70
2023-08-11T22:19:01.757Z,13.60
2023-08-11T22:21:29.112Z,13.60
2023-08-11T22:23:59.287Z,13.60
2023-08-11T22:26:26.372Z,13.50
2023-08-11T22:28:53.774Z,13.50
2023-08-11T22:33:48.110Z,13.50
2023-08-11T22:36:15.318Z,13.50
2023-08-11T22:38:42.718Z,13.40
2023-08-11T22:41:09.794Z,13.40
2023-08-11T22:43:36.941Z,13.40
2023-08-11T22:46:04.196Z,13.30
2023-08-11T22:48:31.453Z,13.30
2023-08-11T22:50:58.538Z,13.30
2023-08-11T22:53:25.596Z,13.20
2023-08-11T22:55:53.094Z,13.10
2023-08-11T22:58:20.181Z,13.10
2023-08-11T23:00:47.328Z,13.00
2023-08-11T23:03:14.494Z,13.00
2023-08-11T23:05:41.748Z,13.00
2023-08-11T23:08:08.903Z,12.90
2023-08-11T23:10:36.073Z,12.90
2023-08-11T23:13:03.201Z,12.90
2023-08-11T23:15:30.369Z,12.90
2023-08-11T23:17:57.501Z,12.80
2023-08-11T23:20:24.637Z,12.80
2023-08-11T23:22:51.814Z,12.70
2023-08-11T23:25:19.000Z,12.60
2023-08-11T23:27:46.101Z,12.60
2023-08-11T23:30:13.510Z,12.60
2023-08-11T23:32:40.664Z,12.60
2023-08-11T23:35:08.139Z,12.60
2023-08-11T23:37:35.427Z,12.50
2023-08-11T23:40:02.569Z,12.50
2023-08-11T23:42:31.512Z,12.50
2023-08-11T23:44:58.606Z,12.40
2023-08-11T23:47:26.167Z,12.40
2023-08-11T23:49:53.502Z,12.40
2023-08-11T23:52:20.867Z,12.30
2023-08-11T23:54:53.155Z,12.30
2023-08-11T23:57:22.403Z,12.20
2023-08-11T23:59:49.619Z,12.20
